Time;durP1;ratioP1;P1;durP2;ratioP2;P2;SDS_P1;SDS_P2;PMS_P1;PMS_P2;Temp;Humidity;BMP_temperature;BMP_pressure;BME280_temperature;BME280_humidity;BME280_pressure;Samples;Min_cycle;Max_cycle;Signal;HPM_P1;HPM_P2
2022/10/23 00:02:30;;;;;;;51.05;32.10;;;;;;;12.74;100.00;98972.72;2173635;81;20918;-84
2022/10/23 00:05:30;;;;;;;51.65;33.63;;;;;;;12.74;100.00;98972.72;2176506;81;21008;-84
2022/10/23 00:08:31;;;;;;;48.20;31.00;;;;;;;12.73;100.00;98978.39;2173117;82;20937;-84
2022/10/23 00:11:31;;;;;;;52.10;32.78;;;;;;;12.74;100.00;98979.27;2170883;81;20961;-84
2022/10/23 00:14:32;;;;;;;57.33;32.88;;;;;;;12.74;100.00;98976.22;2171529;81;20921;-84
2022/10/23 00:17:33;;;;;;;51.85;33.58;;;;;;;12.74;100.00;98974.91;2171458;81;20909;-83
2022/10/23 00:20:33;;;;;;;46.73;30.80;;;;;;;12.74;100.00;98979.27;2171411;81;20929;-83
2022/10/23 00:23:33;;;;;;;50.45;32.40;;;;;;;12.73;100.00;98983.63;2171499;81;21353;-83
2022/10/23 00:26:33;;;;;;;45.23;31.93;;;;;;;12.73;100.00;98986.69;2171154;81;20925;-83
2022/10/23 00:29:34;;;;;;;44.83;31.93;;;;;;;12.71;100.00;98991.91;2171678;81;20962;-83
2022/10/23 00:32:34;;;;;;;51.70;30.97;;;;;;;12.70;100.00;98995.41;2171323;81;21004;-83
2022/10/23 00:35:35;;;;;;;50.85;31.15;;;;;;;12.70;100.00;99001.95;2171070;81;20996;-83
2022/10/23 00:38:35;;;;;;;42.35;31.23;;;;;;;12.70;100.00;99003.69;2171353;81;20902;-83
2022/10/23 00:41:35;;;;;;;41.95;28.70;;;;;;;12.70;100.00;99009.80;2171699;81;20886;-83
2022/10/23 00:44:36;;;;;;;42.75;31.00;;;;;;;12.70;100.00;99013.73;2171712;81;20916;-83
2022/10/23 00:47:36;;;;;;;40.33;28.35;;;;;;;12.70;100.00;99010.23;2171708;81;20961;-83
2022/10/23 00:50:37;;;;;;;40.92;28.38;;;;;;;12.69;100.00;99006.74;2171325;81;20901;-83
2022/10/23 00:53:37;;;;;;;42.70;30.60;;;;;;;12.68;100.00;99006.30;2171771;82;21000;-83
2022/10/23 00:56:38;;;;;;;39.63;27.73;;;;;;;12.67;100.00;99011.09;2171084;81;21353;-83
2022/10/23 00:59:38;;;;;;;47.93;29.18;;;;;;;12.67;100.00;99015.45;2171657;81;20932;-84
2022/10/23 01:02:38;;;;;;;38.58;28.52;;;;;;;12.66;100.00;99014.58;2171728;81;20980;-84
2022/10/23 01:05:39;;;;;;;40.38;27.87;;;;;;;12.66;100.00;99017.20;2172119;81;21450;-84
2022/10/23 01:08:39;;;;;;;38.00;27.85;;;;;;;12.67;100.00;99019.39;2173229;82;20925;-84
2022/10/23 01:11:40;;;;;;;39.23;28.15;;;;;;;12.66;100.00;99022.44;2172928;81;20957;-83
2022/10/23 01:14:40;;;;;;;38.38;27.73;;;;;;;12.65;100.00;99016.77;2173375;81;20930;-84
2022/10/23 01:17:40;;;;;;;38.98;29.05;;;;;;;12.66;100.00;99021.56;2173420;81;20980;-84
2022/10/23 01:20:41;;;;;;;42.17;28.65;;;;;;;12.64;100.00;99022.86;2173087;81;20982;-84
2022/10/23 01:23:42;;;;;;;38.58;28.02;;;;;;;12.64;100.00;99021.55;2173235;81;20964;-83
2022/10/23 01:26:42;;;;;;;41.98;30.32;;;;;;;12.64;100.00;99016.31;2173358;81;20933;-84
2022/10/23 01:29:42;;;;;;;38.23;27.65;;;;;;;12.66;100.00;99026.37;2173184;81;21277;-84
2022/10/23 01:32:43;;;;;;;44.30;29.40;;;;;;;12.67;100.00;99014.15;2173127;81;20937;-83
2022/10/23 01:35:43;;;;;;;45.10;28.92;;;;;;;12.66;100.00;99019.82;2172137;81;21043;-83
2022/10/23 01:38:43;;;;;;;45.10;29.52;;;;;;;12.67;100.00;99024.19;2173247;81;20897;-83
2022/10/23 01:41:44;;;;;;;45.28;30.27;;;;;;;12.67;100.00;99027.24;2173164;81;21317;-83
2022/10/23 01:44:44;;;;;;;46.00;28.80;;;;;;;12.68;100.00;99025.07;2173296;81;20929;-83
2022/10/23 01:47:45;;;;;;;44.15;29.40;;;;;;;12.68;100.00;99028.56;2173129;81;20937;-83
2022/10/23 01:50:45;;;;;;;47.40;29.30;;;;;;;12.70;100.00;99025.95;2173258;81;20929;-83
2022/10/23 01:53:45;;;;;;;41.92;30.97;;;;;;;12.70;100.00;99032.50;2173091;81;21331;-83
2022/10/23 01:56:46;;;;;;;42.75;28.45;;;;;;;12.68;100.00;99028.56;2173162;81;20961;-83
2022/10/23 01:59:46;;;;;;;38.92;28.50;;;;;;;12.68;100.00;99025.95;2173440;81;20965;-82
2022/10/23 02:02:46;;;;;;;41.65;28.77;;;;;;;12.65;100.00;99023.31;2172977;81;20953;-83
2022/10/23 02:05:47;;;;;;;44.23;31.25;;;;;;;12.65;100.00;99026.36;2174517;81;21388;-83
2022/10/23 02:08:47;;;;;;;35.33;28.17;;;;;;;12.65;100.00;99032.91;2170931;81;20973;-83
2022/10/23 02:11:48;;;;;;;38.17;27.02;;;;;;;12.63;100.00;99045.98;2171489;81;20949;-83
2022/10/23 02:14:48;;;;;;;45.60;34.50;;;;;;;12.64;100.00;99046.44;2171310;81;20937;-83
2022/10/23 02:17:48;;;;;;;52.10;34.45;;;;;;;12.64;100.00;99045.12;2170903;81;21272;-83
2022/10/23 02:20:49;;;;;;;44.67;33.10;;;;;;;12.65;100.00;99053.42;2171243;81;20929;-83
2022/10/23 02:23:49;;;;;;;45.28;31.25;;;;;;;12.68;100.00;99046.89;2171348;82;20953;-83
2022/10/23 02:26:50;;;;;;;34.27;27.75;;;;;;;12.68;100.00;99062.61;2171626;81;21285;-83
2022/10/23 02:29:50;;;;;;;44.25;27.95;;;;;;;12.69;100.00;99064.36;2169725;81;21383;-83
2022/10/23 02:32:50;;;;;;;35.80;26.60;;;;;;;12.70;100.00;99062.63;2169072;81;20984;-82
2022/10/23 02:35:51;;;;;;;40.83;27.65;;;;;;;12.72;100.00;99067.44;2169026;81;21134;-83
2022/10/23 02:38:51;;;;;;;35.28;25.95;;;;;;;12.71;100.00;99061.32;2169368;81;20989;-83
2022/10/23 02:41:52;;;;;;;31.45;25.52;;;;;;;12.71;100.00;99058.70;2171599;81;20925;-84
2022/10/23 02:44:52;;;;;;;39.18;28.70;;;;;;;12.70;100.00;99059.56;2171071;81;20977;-83
2022/10/23 02:47:53;;;;;;;48.20;33.85;;;;;;;12.67;100.00;99054.31;2171656;81;20945;-83
2022/10/23 02:50:53;;;;;;;38.88;26.90;;;;;;;12.66;100.00;99062.16;2171255;81;20960;-84
2022/10/23 02:53:53;;;;;;;35.33;25.57;;;;;;;12.64;100.00;99068.69;2171520;81;20996;-83
2022/10/23 02:56:54;;;;;;;28.02;22.65;;;;;;;12.62;100.00;99065.19;2171658;81;20933;-84
2022/10/23 02:59:54;;;;;;;31.90;24.95;;;;;;;12.63;100.00;99070.87;2170973;81;20969;-83
2022/10/23 03:02:55;;;;;;;36.73;25.23;;;;;;;12.61;100.00;99066.48;2171888;81;20937;-83
2022/10/23 03:05:55;;;;;;;32.90;24.40;;;;;;;12.58;100.00;99075.20;2171216;81;20969;-84
2022/10/23 03:08:55;;;;;;;35.68;25.72;;;;;;;12.57;100.00;99069.95;2171918;81;20909;-84
2022/10/23 03:11:56;;;;;;;30.55;24.85;;;;;;;12.57;100.00;99069.52;2170342;81;20933;-84
2022/10/23 03:14:56;;;;;;;30.20;22.77;;;;;;;12.57;100.00;99070.83;2171101;81;20969;-84
2022/10/23 03:17:57;;;;;;;38.53;24.82;;;;;;;12.53;100.00;99070.36;2173121;81;20951;-84
2022/10/23 03:20:57;;;;;;;31.35;24.18;;;;;;;12.49;100.00;99072.51;2172268;81;20964;-84
2022/10/23 03:23:57;;;;;;;30.52;23.10;;;;;;;12.42;100.00;99079.44;2171157;81;20960;-84
2022/10/23 03:26:58;;;;;;;31.40;23.42;;;;;;;12.38;100.00;99088.13;2171638;82;20957;-84
2022/10/23 03:29:58;;;;;;;37.67;26.05;;;;;;;12.35;100.00;99078.94;2171930;81;21360;-85
2022/10/23 03:32:59;;;;;;;36.48;25.00;;;;;;;12.37;100.00;99086.81;2171266;81;20996;-85
2022/10/23 03:35:59;;;;;;;34.50;25.57;;;;;;;12.38;100.00;99089.88;2172737;81;20926;-84
2022/10/23 03:38:59;;;;;;;36.00;25.43;;;;;;;12.38;100.00;99091.18;2171957;81;20972;-84
2022/10/23 03:42:00;;;;;;;35.58;24.02;;;;;;;12.42;100.00;99103.43;2170898;81;21341;-84
2022/10/23 03:45:00;;;;;;;35.08;23.02;;;;;;;12.41;100.00;99104.30;2170794;81;20934;-84
2022/10/23 03:48:01;;;;;;;38.38;26.02;;;;;;;12.42;100.00;99100.81;2171694;81;20926;-84
2022/10/23 03:51:01;;;;;;;43.20;30.37;;;;;;;12.40;100.00;99111.70;2172920;81;20972;-84
2022/10/23 03:54:01;;;;;;;50.75;32.13;;;;;;;12.40;100.00;99113.02;2171508;81;20968;-83
2022/10/23 03:57:02;;;;;;;51.90;32.65;;;;;;;12.41;100.00;99112.15;2171827;81;20981;-85
2022/10/23 04:00:02;;;;;;;47.03;32.23;;;;;;;12.40;100.00;99111.27;2171030;81;20941;-85
2022/10/23 04:03:03;;;;;;;43.23;33.38;;;;;;;12.38;100.00;99114.73;2171204;81;20968;-84
2022/10/23 04:06:03;;;;;;;53.75;32.05;;;;;;;12.32;100.00;99122.53;2171375;81;20997;-84
2022/10/23 04:09:06;;;;;;;43.52;28.42;;;;;;;12.26;100.00;99122.48;2170751;81;20929;-84
2022/10/23 04:12:06;;;;;;;50.23;36.73;;;;;;;12.20;100.00;99111.95;2171061;81;20965;-83
2022/10/23 04:15:07;;;;;;;45.55;30.00;;;;;;;12.13;100.00;99117.09;2171771;81;20925;-82
2022/10/23 04:18:07;;;;;;;37.90;24.75;;;;;;;12.06;100.00;99120.52;2172754;81;21306;-82
2022/10/23 04:21:07;;;;;;;36.23;24.50;;;;;;;12.00;100.00;99123.06;2171563;82;20918;-83
2022/10/23 04:24:08;;;;;;;33.25;24.47;;;;;;;11.96;100.00;99126.52;2171532;81;20949;-83
2022/10/23 04:27:08;;;;;;;32.78;24.32;;;;;;;11.93;100.00;99128.22;2171800;81;20906;-84
2022/10/23 04:30:09;;;;;;;28.67;22.80;;;;;;;11.89;100.00;99124.69;2170853;81;20933;-84
2022/10/23 04:33:09;;;;;;;32.73;23.15;;;;;;;11.92;100.00;99127.77;2170695;81;21052;-83
2022/10/23 04:36:10;;;;;;;32.83;25.30;;;;;;;11.91;100.00;99126.89;2170666;81;20941;-83
2022/10/23 04:39:10;;;;;;;44.42;26.30;;;;;;;11.93;100.00;99125.17;2172193;81;20929;-82
2022/10/23 04:42:10;;;;;;;43.30;28.52;;;;;;;11.94;100.00;99126.92;2170555;81;20926;-83
2022/10/23 04:45:11;;;;;;;46.58;29.80;;;;;;;11.92;100.00;99123.41;2170571;81;20992;-82
2022/10/23 04:48:11;;;;;;;58.87;34.50;;;;;;;11.89;100.00;99124.69;2171784;81;20882;-82
2022/10/23 04:51:12;;;;;;;45.05;33.13;;;;;;;11.89;100.00;99124.69;2172651;82;20945;-83
2022/10/23 04:54:12;;;;;;;59.08;35.65;;;;;;;11.94;100.00;99119.51;2172354;81;21305;-83
2022/10/23 04:57:12;;;;;;;53.38;36.05;;;;;;;12.01;100.00;99122.20;2170541;81;20922;-82
2022/10/23 05:00:13;;;;;;;44.85;31.80;;;;;;;12.07;100.00;99122.70;2172692;81;20914;-81
2022/10/23 05:03:13;;;;;;;35.85;26.55;;;;;;;12.12;100.00;99116.65;2171204;81;20969;-82
2022/10/23 05:06:14;;;;;;;33.13;24.65;;;;;;;12.20;100.00;99115.88;2170193;81;21385;-82
2022/10/23 05:09:14;;;;;;;35.58;23.80;;;;;;;12.26;100.00;99118.55;2169531;81;21049;-81
2022/10/23 05:12:14;;;;;;;35.98;24.55;;;;;;;12.28;100.00;99119.02;2168920;81;20997;-81
2022/10/23 05:15:15;;;;;;;34.43;26.17;;;;;;;12.31;100.00;99120.78;2169928;81;20961;-82
2022/10/23 05:18:15;;;;;;;42.45;30.60;;;;;;;12.33;100.00;99125.60;2168603;81;20973;-82
2022/10/23 05:21:16;;;;;;;34.80;26.62;;;;;;;12.38;100.00;99126.09;2168801;81;20965;-82
2022/10/23 05:24:16;;;;;;;52.75;30.43;;;;;;;12.43;100.00;99132.67;2171036;81;20992;-82
2022/10/23 05:27:16;;;;;;;44.70;28.45;;;;;;;12.41;100.00;99122.19;2170383;81;20977;-81
2022/10/23 05:30:17;;;;;;;41.18;26.25;;;;;;;12.46;100.00;99120.92;2172225;81;20952;-81
2022/10/23 05:33:17;;;;;;;39.58;27.45;;;;;;;12.49;100.00;99124.00;2171547;81;20953;-82
2022/10/23 05:36:18;;;;;;;43.38;27.20;;;;;;;12.47;100.00;99133.58;2172854;81;20921;-82
2022/10/23 05:39:18;;;;;;;40.60;26.62;;;;;;;12.48;100.00;99133.59;2174001;81;20937;-82
2022/10/23 05:42:18;;;;;;;43.48;25.90;;;;;;;12.51;100.00;99133.63;2171826;81;21321;-82
2022/10/23 05:45:19;;;;;;;37.48;25.10;;;;;;;12.57;100.00;99138.91;2170665;81;21436;-82
2022/10/23 05:48:19;;;;;;;47.20;26.60;;;;;;;12.61;100.00;99137.19;2171448;81;21392;-81
2022/10/23 05:51:21;;;;;;;37.53;23.60;;;;;;;12.63;100.00;99150.74;2170696;81;20956;-82
2022/10/23 05:54:20;;;;;;;44.53;25.97;;;;;;;12.61;100.00;99155.09;2171586;81;20925;-82
2022/10/23 05:57:21;;;;;;;43.83;26.93;;;;;;;12.59;100.00;99160.75;2171759;81;20926;-82
2022/10/23 06:00:21;;;;;;;49.03;26.00;;;;;;;12.60;100.00;99162.50;2171622;82;21285;-81
2022/10/23 06:03:21;;;;;;;44.23;27.82;;;;;;;12.59;100.00;99173.84;2171641;81;20961;-82
2022/10/23 06:06:22;;;;;;;60.20;29.75;;;;;;;12.55;100.00;99172.48;2172043;80;20981;-82
2022/10/23 06:09:22;;;;;;;69.60;27.87;;;;;;;12.54;100.00;99165.06;2173234;81;20957;-83
2022/10/23 06:12:23;;;;;;;56.00;28.07;;;;;;;12.57;100.00;99169.45;2173708;81;20972;-82
2022/10/23 06:15:23;;;;;;;47.70;26.05;;;;;;;12.54;100.00;99166.81;2173635;81;20941;-82
2022/10/23 06:18:23;;;;;;;50.90;27.00;;;;;;;12.55;100.00;99173.37;2173012;81;21008;-82
2022/10/23 06:21:24;;;;;;;43.80;25.60;;;;;;;12.58;100.00;99176.45;2172383;81;20995;-82
2022/10/23 06:24:24;;;;;;;42.70;25.05;;;;;;;12.59;100.00;99180.39;2172195;81;21351;-82
2022/10/23 06:27:25;;;;;;;47.13;25.08;;;;;;;12.63;100.00;99181.30;2172171;81;20956;-82
2022/10/23 06:30:25;;;;;;;51.50;24.37;;;;;;;12.61;100.00;99186.52;2171833;81;20975;-82
2022/10/23 06:33:25;;;;;;;41.83;23.32;;;;;;;12.61;100.00;99190.45;2172909;81;21011;-82
2022/10/23 06:36:26;;;;;;;56.08;27.45;;;;;;;12.63;100.00;99193.95;2173447;81;21296;-81
2022/10/23 06:39:26;;;;;;;50.00;27.95;;;;;;;12.66;100.00;99186.56;2173346;81;21036;-82
2022/10/23 06:42:27;;;;;;;48.78;26.52;;;;;;;12.70;100.00;99193.58;2173538;81;20929;-81
2022/10/23 06:45:28;;;;;;;47.85;26.90;;;;;;;12.78;100.00;99193.21;2173582;81;21044;-81
2022/10/23 06:48:27;;;;;;;54.35;27.40;;;;;;;12.82;100.00;99201.54;2172954;81;20964;-81
2022/10/23 06:51:28;;;;;;;47.58;26.50;;;;;;;12.82;100.00;99203.28;2173618;81;20933;-82
2022/10/23 06:54:28;;;;;;;50.75;26.62;;;;;;;12.86;100.00;99203.75;2172973;81;20976;-83
2022/10/23 06:57:29;;;;;;;51.92;28.57;;;;;;;12.89;100.00;99204.66;2173377;81;20925;-82
2022/10/23 07:00:29;;;;;;;46.45;26.55;;;;;;;12.93;100.00;99206.88;2173054;81;21385;-82
2022/10/23 07:03:29;;;;;;;47.33;22.85;;;;;;;12.95;100.00;99202.52;2173332;81;20980;-82
2022/10/23 07:06:30;;;;;;;42.53;22.73;;;;;;;12.96;100.00;99199.03;2171199;81;21020;-81
2022/10/23 07:09:30;;;;;;;36.75;22.07;;;;;;;13.07;100.00;99198.72;2171578;81;21384;-81
2022/10/23 07:12:31;;;;;;;41.77;26.35;;;;;;;13.26;100.00;99199.32;2172901;81;21380;-81
2022/10/23 07:15:31;;;;;;;39.33;25.92;;;;;;;13.43;100.00;99199.86;2172149;81;20929;-82
2022/10/23 07:18:32;;;;;;;41.42;26.50;;;;;;;13.55;100.00;99198.63;2172742;81;21369;-81
2022/10/23 07:21:33;;;;;;;44.33;26.37;;;;;;;13.67;100.00;99201.31;2171385;81;20953;-81
2022/10/23 07:24:35;;;;;;;32.23;20.35;;;;;;;13.76;100.00;99200.04;2171624;81;21364;-81
2022/10/23 07:27:33;;;;;;;34.73;19.87;;;;;;;13.87;100.00;99207.56;2171965;81;20972;-82
2022/10/23 07:30:33;;;;;;;30.75;20.40;;;;;;;13.94;100.00;99205.41;2171593;81;20956;-83
2022/10/23 07:33:34;;;;;;;27.77;17.90;;;;;;;14.01;100.00;99211.55;2171863;81;21027;-83
2022/10/23 07:36:34;;;;;;;26.00;17.32;;;;;;;14.12;100.00;99204.59;2173041;81;20941;-82
2022/10/23 07:39:34;;;;;;;28.70;17.60;;;;;;;14.24;100.00;99207.26;2172815;81;21015;-82
2022/10/23 07:42:35;;;;;;;30.43;18.80;;;;;;;14.33;100.00;99212.97;2173213;81;20913;-83
2022/10/23 07:45:35;;;;;;;25.23;17.77;;;;;;;14.29;99.32;99211.20;2173320;81;21265;-83
2022/10/23 07:48:36;;;;;;;29.20;18.10;;;;;;;14.37;98.70;99209.91;2173246;81;20948;-82
2022/10/23 07:51:36;;;;;;;28.70;18.60;;;;;;;14.48;99.17;99209.09;2173476;81;20957;-83
2022/10/23 07:54:36;;;;;;;27.10;18.17;;;;;;;14.58;97.94;99214.80;2173264;81;20980;-82
2022/10/23 07:57:37;;;;;;;24.12;18.35;;;;;;;14.67;97.67;99204.75;2173301;81;20965;-82
2022/10/23 08:00:37;;;;;;;22.40;17.92;;;;;;;14.81;97.53;99195.59;2173030;82;21333;-82
2022/10/23 08:03:38;;;;;;;21.80;17.23;;;;;;;14.87;96.60;99194.28;2173099;81;20909;-82
2022/10/23 08:06:38;;;;;;;21.62;16.60;;;;;;;14.87;95.85;99198.22;2174497;81;20977;-82
2022/10/23 08:09:39;;;;;;;25.50;17.20;;;;;;;14.88;95.06;99200.85;2174429;82;21060;-82
2022/10/23 08:12:39;;;;;;;22.73;16.27;;;;;;;14.89;94.65;99203.92;2170631;81;20993;-82
2022/10/23 08:15:39;;;;;;;25.15;16.80;;;;;;;14.91;94.57;99208.73;2171407;81;20949;-83
2022/10/23 08:18:41;;;;;;;22.95;18.02;;;;;;;15.07;93.78;99209.61;2171876;81;20972;-82
2022/10/23 08:21:40;;;;;;;22.40;15.60;;;;;;;15.41;97.59;99201.68;2171321;81;21336;-83
2022/10/23 08:24:41;;;;;;;24.75;15.55;;;;;;;17.18;91.63;99188.52;2171307;81;20921;-82
2022/10/23 08:27:41;;;;;;;21.82;12.88;;;;;;;18.34;89.77;99185.94;2171785;81;20945;-81
2022/10/23 08:30:41;;;;;;;16.65;12.55;;;;;;;19.63;83.10;99178.57;2171609;81;20937;-82
2022/10/23 08:33:42;;;;;;;22.55;12.55;;;;;;;20.40;75.75;99173.92;2171621;82;21339;-82
2022/10/23 08:36:42;;;;;;;16.23;11.10;;;;;;;20.86;73.99;99179.05;2171641;81;20894;-82
2022/10/23 08:39:43;;;;;;;16.80;10.55;;;;;;;21.07;71.88;99176.32;2170709;81;21008;-82
2022/10/23 08:42:43;;;;;;;13.20;9.95;;;;;;;21.26;71.25;99161.70;2171945;81;20933;-82
2022/10/23 08:45:43;;;;;;;15.88;10.05;;;;;;;21.47;68.02;99164.23;2172264;81;21285;-82
2022/10/23 08:48:44;;;;;;;11.22;8.58;;;;;;;21.70;63.08;99162.76;2172179;81;20964;-82
2022/10/23 08:51:44;;;;;;;11.65;9.53;;;;;;;21.77;64.97;99159.89;2172833;81;20897;-82
2022/10/23 08:54:45;;;;;;;11.45;8.48;;;;;;;22.00;64.07;99168.52;2171880;81;20941;-82
2022/10/23 08:57:45;;;;;;;10.82;8.80;;;;;;;22.07;61.38;99170.13;2171401;81;21329;-82
2022/10/23 09:00:45;;;;;;;10.35;8.63;;;;;;;21.97;61.72;99175.26;2171680;81;20921;-82
2022/10/23 09:03:46;;;;;;;9.88;8.23;;;;;;;22.11;60.03;99177.09;2171911;80;20926;-82
2022/10/23 09:06:46;;;;;;;10.38;8.18;;;;;;;22.21;59.41;99177.23;2171965;81;20993;-81
2022/10/23 09:09:47;;;;;;;10.60;7.40;;;;;;;22.45;59.17;99177.39;2173712;81;21021;-81
2022/10/23 09:12:47;;;;;;;11.40;8.48;;;;;;;22.39;58.01;99177.58;2172094;81;20992;-82
2022/10/23 09:15:47;;;;;;;11.40;7.90;;;;;;;22.23;57.94;99178.05;2172361;81;20929;-83
2022/10/23 09:18:48;;;;;;;13.35;8.38;;;;;;;21.81;59.73;99179.27;2171085;81;20937;-82
2022/10/23 09:21:48;;;;;;;12.85;8.55;;;;;;;21.90;59.99;99184.33;2170965;81;20956;-81
2022/10/23 09:24:49;;;;;;;10.88;7.85;;;;;;;22.19;57.62;99183.05;2172089;81;21286;-80
2022/10/23 09:27:49;;;;;;;8.95;7.03;;;;;;;22.61;56.65;99180.02;2170755;81;20925;-82
2022/10/23 09:30:50;;;;;;;14.73;7.10;;;;;;;22.75;56.61;99188.89;2171664;81;20949;-82
2022/10/23 09:33:50;;;;;;;9.68;6.97;;;;;;;22.47;55.27;99192.84;2171820;81;21286;-82
2022/10/23 09:36:50;;;;;;;9.95;7.05;;;;;;;22.24;56.35;99193.09;2170652;81;20988;-81
2022/10/23 09:39:51;;;;;;;7.50;5.72;;;;;;;22.69;56.25;99191.30;2171378;81;21400;-81
2022/10/23 09:42:51;;;;;;;9.53;6.15;;;;;;;22.42;53.04;99194.32;2170957;81;20981;-81
2022/10/23 09:45:52;;;;;;;12.15;6.58;;;;;;;21.81;56.74;99199.20;2171885;81;20941;-82
2022/10/23 09:48:52;;;;;;;8.95;7.42;;;;;;;21.42;56.64;99188.72;2170936;81;20914;-82
2022/10/23 09:51:52;;;;;;;9.03;6.78;;;;;;;21.13;57.62;99188.11;2171975;81;20924;-82
2022/10/23 09:54:53;;;;;;;17.75;7.47;;;;;;;21.63;57.18;99174.85;2171220;82;21305;-82
2022/10/23 09:57:53;;;;;;;9.70;6.50;;;;;;;22.10;56.18;99180.66;2171968;81;20988;-81
2022/10/23 10:00:54;;;;;;;13.13;7.25;;;;;;;22.54;55.35;99177.11;2171834;81;20934;-82
2022/10/23 10:03:54;;;;;;;9.95;6.75;;;;;;;22.79;54.23;99175.91;2170879;81;20913;-82
2022/10/23 10:06:54;;;;;;;11.33;7.10;;;;;;;22.54;54.64;99178.44;2170543;81;21008;-82
2022/10/23 10:09:55;;;;;;;11.55;7.90;;;;;;;22.63;55.49;99181.30;2172557;81;21364;-82
2022/10/23 10:12:55;;;;;;;11.65;6.20;;;;;;;22.55;54.85;99173.11;2172606;81;21037;-83
2022/10/23 10:15:56;;;;;;;10.80;7.15;;;;;;;22.64;54.08;99171.95;2172084;81;20964;-83
2022/10/23 10:18:56;;;;;;;13.45;7.12;;;;;;;22.28;54.24;99164.62;2172315;81;20964;-82
2022/10/23 10:21:56;;;;;;;11.40;7.20;;;;;;;22.25;55.49;99166.91;2172225;81;20961;-82
2022/10/23 10:24:57;;;;;;;8.30;6.83;;;;;;;22.08;54.58;99172.32;2171046;81;20953;-81
2022/10/23 10:27:57;;;;;;;9.80;5.70;;;;;;;21.90;54.35;99171.03;2172435;81;20933;-82
2022/10/23 10:30:58;;;;;;;11.35;6.33;;;;;;;21.49;54.36;99172.16;2169633;81;20929;-81
2022/10/23 10:33:58;;;;;;;13.48;6.15;;;;;;;21.53;56.85;99164.06;2168352;81;21083;-81
2022/10/23 10:36:59;;;;;;;8.98;5.92;;;;;;;21.97;54.58;99177.05;2168809;81;20968;-81
2022/10/23 10:39:59;;;;;;;6.65;5.70;;;;;;;22.42;55.40;99177.49;2168999;81;21012;-82
2022/10/23 10:42:59;;;;;;;7.97;6.12;;;;;;;22.68;53.30;99165.60;2170576;81;20925;-82
2022/10/23 10:46:01;;;;;;;10.40;6.53;;;;;;;22.75;53.66;99171.14;2172036;81;20969;-82
2022/10/23 10:49:02;;;;;;;12.28;6.50;;;;;;;22.90;52.81;99176.45;2173377;82;20945;-82
2022/10/23 10:52:02;;;;;;;7.25;6.47;;;;;;;22.46;54.62;99165.84;2173635;81;20980;-81
2022/10/23 10:55:03;;;;;;;7.15;6.45;;;;;;;22.78;52.93;99164.84;2173546;81;21292;-81
2022/10/23 10:58:03;;;;;;;7.97;7.17;;;;;;;22.77;53.50;99167.97;2172540;81;21016;-81
2022/10/23 11:01:03;;;;;;;12.73;6.92;;;;;;;22.76;52.79;99162.23;2173048;81;20933;-81
2022/10/23 11:04:04;;;;;;;8.48;7.20;;;;;;;22.41;52.12;99163.32;2173446;81;20929;-81
2022/10/23 11:07:04;;;;;;;9.30;7.30;;;;;;;22.37;53.76;99170.98;2172465;81;20942;-81
2022/10/23 11:10:05;;;;;;;9.18;7.22;;;;;;;22.47;53.88;99169.78;2173120;81;20973;-80
2022/10/23 11:13:05;;;;;;;7.95;7.10;;;;;;;22.45;54.69;99165.42;2173383;81;21001;-80
2022/10/23 11:16:06;;;;;;;13.53;7.35;;;;;;;22.45;55.03;99162.77;2173293;81;20926;-80
2022/10/23 11:19:06;;;;;;;9.80;7.37;;;;;;;22.19;54.50;99164.44;2173497;81;20901;-80
2022/10/23 11:22:06;;;;;;;12.73;6.87;;;;;;;22.07;52.81;99155.50;2173581;81;20927;-80
2022/10/23 11:25:07;;;;;;;8.35;6.80;;;;;;;21.94;55.27;99148.77;2173313;81;21341;-80
2022/10/23 11:28:07;;;;;;;11.83;7.47;;;;;;;22.68;54.55;99137.66;2173260;81;21313;-80
2022/10/23 11:31:08;;;;;;;8.73;7.10;;;;;;;22.36;52.96;99139.98;2173279;81;20933;-80
2022/10/23 11:34:08;;;;;;;9.13;7.20;;;;;;;22.00;53.44;99133.97;2173551;81;20964;-80
2022/10/23 11:37:08;;;;;;;8.20;7.05;;;;;;;21.58;53.44;99135.59;2173538;82;20969;-80
2022/10/23 11:40:09;;;;;;;17.27;8.68;;;;;;;21.48;54.48;99123.48;2172983;81;20988;-80
2022/10/23 11:43:09;;;;;;;9.40;6.40;;;;;;;21.46;53.94;99117.34;2173605;81;20933;-79
2022/10/23 11:46:10;;;;;;;9.00;6.87;;;;;;;21.53;54.27;99116.26;2173501;81;20925;-80
2022/10/23 11:49:10;;;;;;;8.73;6.05;;;;;;;21.46;54.48;99105.39;2173534;81;21571;-80
2022/10/23 11:52:10;;;;;;;10.30;6.87;;;;;;;21.71;54.70;99110.04;2173379;81;20980;-80
2022/10/23 11:55:12;;;;;;;8.88;7.00;;;;;;;22.28;52.67;99107.45;2188041;81;21115;-81
2022/10/23 11:58:12;;;;;;;7.70;6.85;;;;;;;22.34;52.32;99102.39;2173516;81;20957;-81
2022/10/23 12:01:12;;;;;;;11.53;7.22;;;;;;;22.61;51.99;99100.20;2173360;81;20941;-82
2022/10/23 12:04:13;;;;;;;8.08;6.87;;;;;;;22.91;51.09;99106.79;2173351;81;20925;-81
2022/10/23 12:07:13;;;;;;;11.35;8.10;;;;;;;22.73;51.59;99095.81;2174059;80;20890;-81
2022/10/23 12:10:14;;;;;;;8.03;7.22;;;;;;;22.47;51.01;99101.08;2180165;81;20961;-81
2022/10/23 12:13:14;;;;;;;10.10;6.78;;;;;;;22.62;51.24;99093.97;2173691;81;20993;-81
2022/10/23 12:16:15;;;;;;;9.20;7.28;;;;;;;22.98;51.92;99087.02;2170690;81;20953;-81
2022/10/23 12:19:15;;;;;;;9.70;7.05;;;;;;;23.50;49.59;99078.08;2171134;80;20918;-81
2022/10/23 12:22:15;;;;;;;8.43;7.33;;;;;;;23.80;48.69;99078.76;2171697;81;20917;-81
2022/10/23 12:25:16;;;;;;;9.05;7.30;;;;;;;23.80;48.61;99072.97;2171698;81;21308;-81
2022/10/23 12:28:16;;;;;;;9.23;6.97;;;;;;;23.68;48.47;99072.09;2170964;80;21305;-81
2022/10/23 12:31:17;;;;;;;9.10;6.62;;;;;;;23.42;49.56;99069.03;2171046;80;20926;-81
2022/10/23 12:34:17;;;;;;;8.38;6.47;;;;;;;23.18;50.73;99065.44;2171620;81;20977;-82
2022/10/23 12:37:17;;;;;;;8.20;5.47;;;;;;;23.20;50.95;99062.72;2128964;83;21266;-82
2022/10/23 12:40:18;;;;;;;7.42;6.37;;;;;;;23.18;50.71;99063.23;2128945;84;21028;-82
2022/10/23 12:43:18;;;;;;;6.83;5.65;;;;;;;22.95;51.01;99059.18;2128674;84;20937;-81
2022/10/23 12:46:19;;;;;;;7.22;5.62;;;;;;;22.71;51.47;99056.41;2128925;84;21304;-81
2022/10/23 12:49:19;;;;;;;11.73;6.28;;;;;;;22.37;50.73;99061.94;2128834;84;20969;-81
2022/10/23 12:52:20;;;;;;;10.65;6.70;;;;;;;22.27;53.32;99063.16;2128854;84;21005;-81
2022/10/23 12:55:20;;;;;;;8.23;6.47;;;;;;;22.35;52.58;99064.24;2128867;84;20969;-81
2022/10/23 12:58:20;;;;;;;12.07;6.58;;;;;;;22.60;52.20;99049.25;2128869;84;21007;-81
2022/10/23 13:01:21;;;;;;;8.78;6.53;;;;;;;22.76;53.27;99045.14;2128798;84;20952;-82
2022/10/23 13:04:21;;;;;;;7.37;6.62;;;;;;;23.15;52.94;99039.38;2128982;84;20944;-82
2022/10/23 13:07:21;;;;;;;10.50;6.55;;;;;;;23.24;50.85;99036.84;2128961;83;20925;-81
2022/10/23 13:10:22;;;;;;;6.72;6.05;;;;;;;23.23;52.39;99039.97;2128326;83;21016;-81
2022/10/23 13:13:22;;;;;;;7.83;6.47;;;;;;;23.19;51.23;99035.22;2128629;83;20963;-81
2022/10/23 13:16:23;;;;;;;9.08;6.37;;;;;;;22.98;51.77;99041.77;2128678;83;20897;-81
2022/10/23 13:19:24;;;;;;;7.35;6.65;;;;;;;22.90;51.72;99051.81;2128748;83;20889;-81
2022/10/23 13:22:24;;;;;;;10.15;6.62;;;;;;;22.89;52.73;99045.63;2128880;83;20969;-81
2022/10/23 13:25:24;;;;;;;7.22;6.53;;;;;;;23.12;50.71;99051.00;2128809;83;20944;-82
2022/10/23 13:28:24;;;;;;;10.58;6.62;;;;;;;22.93;51.00;99049.05;2128856;83;20976;-82
2022/10/23 13:31:25;;;;;;;8.50;6.58;;;;;;;22.56;51.50;99040.96;2128803;83;20961;-81
2022/10/23 13:34:25;;;;;;;9.25;6.50;;;;;;;22.51;52.49;99046.86;2128734;83;20956;-81
2022/10/23 13:37:26;;;;;;;9.65;7.15;;;;;;;22.76;52.21;99050.47;2128685;83;21020;-82
2022/10/23 13:40:26;;;;;;;8.40;7.55;;;;;;;22.75;51.02;99048.73;2128515;83;21400;-81
2022/10/23 13:43:27;;;;;;;6.87;6.15;;;;;;;22.81;52.56;99048.55;2128601;83;20966;-81
2022/10/23 13:46:28;;;;;;;10.60;6.95;;;;;;;23.06;51.28;99040.58;2128730;83;20912;-81
2022/10/23 13:49:27;;;;;;;8.08;6.67;;;;;;;22.96;50.83;99041.83;2128680;83;20996;-82